sensor_id;sensor_type;location;lat;lon;timestamp;temperature;humidity
16066;DHT22;8137;48.952;8.970;2023-03-01T00:01:50;-1.70;99.90
16066;DHT22;8137;48.952;8.970;2023-03-01T00:04:16;-1.70;99.90
16066;DHT22;8137;48.952;8.970;2023-03-01T00:06:44;-1.70;99.90
16066;DHT22;8137;48.952;8.970;2023-03-01T00:09:14;-1.80;99.90
16066;DHT22;8137;48.952;8.970;2023-03-01T00:11:40;-1.80;99.90
16066;DHT22;8137;48.952;8.970;2023-03-01T00:14:06;-1.80;99.90
16066;DHT22;8137;48.952;8.970;2023-03-01T00:16:35;-1.80;99.90
16066;DHT22;8137;48.952;8.970;2023-03-01T00:19:02;-1.80;99.90
16066;DHT22;8137;48.952;8.970;2023-03-01T00:21:28;-1.80;99.90
16066;DHT22;8137;48.952;8.970;2023-03-01T00:23:54;-1.90;99.90
16066;DHT22;8137;48.952;8.970;2023-03-01T00:26:22;-1.90;99.90
16066;DHT22;8137;48.952;8.970;2023-03-01T00:28:48;-2.00;99.90
16066;DHT22;8137;48.952;8.970;2023-03-01T00:31:19;-2.00;99.90
16066;DHT22;8137;48.952;8.970;2023-03-01T00:33:45;-2.00;99.90
16066;DHT22;8137;48.952;8.970;2023-03-01T00:36:13;-2.10;99.90
16066;DHT22;8137;48.952;8.970;2023-03-01T00:38:41;-2.10;99.90
16066;DHT22;8137;48.952;8.970;2023-03-01T00:41:12;-2.00;99.90
16066;DHT22;8137;48.952;8.970;2023-03-01T00:43:38;-2.00;99.90
16066;DHT22;8137;48.952;8.970;2023-03-01T00:46:09;-2.00;99.90
16066;DHT22;8137;48.952;8.970;2023-03-01T00:48:36;-2.00;99.90
16066;DHT22;8137;48.952;8.970;2023-03-01T00:51:06;-2.10;99.90
16066;DHT22;8137;48.952;8.970;2023-03-01T00:53:32;-2.10;99.90
16066;DHT22;8137;48.952;8.970;2023-03-01T00:55:58;-2.10;99.90
16066;DHT22;8137;48.952;8.970;2023-03-01T00:58:24;-2.20;99.90
16066;DHT22;8137;48.952;8.970;2023-03-01T01:00:50;-2.20;99.90
16066;DHT22;8137;48.952;8.970;2023-03-01T01:03:15;-2.30;99.90
16066;DHT22;8137;48.952;8.970;2023-03-01T01:05:41;-2.30;99.90
16066;DHT22;8137;48.952;8.970;2023-03-01T01:08:06;-2.40;99.90
16066;DHT22;8137;48.952;8.970;2023-03-01T01:10:34;-2.40;99.90
16066;DHT22;8137;48.952;8.970;2023-03-01T01:12:59;-2.50;99.90
16066;DHT22;8137;48.952;8.970;2023-03-01T01:15:26;-2.50;99.90
16066;DHT22;8137;48.952;8.970;2023-03-01T01:17:52;-2.50;99.90
16066;DHT22;8137;48.952;8.970;2023-03-01T01:20:17;-2.50;99.90
16066;DHT22;8137;48.952;8.970;2023-03-01T01:22:43;-2.60;99.90
16066;DHT22;8137;48.952;8.970;2023-03-01T01:25:09;-2.70;99.90
16066;DHT22;8137;48.952;8.970;2023-03-01T01:27:34;-2.70;99.90
16066;DHT22;8137;48.952;8.970;2023-03-01T01:30:00;-2.70;99.90
16066;DHT22;8137;48.952;8.970;2023-03-01T01:32:25;-2.80;99.90
16066;DHT22;8137;48.952;8.970;2023-03-01T01:34:51;-2.80;99.90
16066;DHT22;8137;48.952;8.970;2023-03-01T01:37:16;-2.80;99.90
16066;DHT22;8137;48.952;8.970;2023-03-01T01:39:42;-2.90;99.90
16066;DHT22;8137;48.952;8.970;2023-03-01T01:42:18;-2.90;99.90
16066;DHT22;8137;48.952;8.970;2023-03-01T01:44:47;-2.80;99.90
16066;DHT22;8137;48.952;8.970;2023-03-01T01:47:16;-2.80;99.90
16066;DHT22;8137;48.952;8.970;2023-03-01T01:49:56;-2.90;99.90
16066;DHT22;8137;48.952;8.970;2023-03-01T01:52:33;-3.00;99.90
16066;DHT22;8137;48.952;8.970;2023-03-01T01:55:10;-3.00;99.90
16066;DHT22;8137;48.952;8.970;2023-03-01T01:57:40;-3.00;99.90
16066;DHT22;8137;48.952;8.970;2023-03-01T02:02:39;-3.00;99.90
16066;DHT22;8137;48.952;8.970;2023-03-01T02:05:11;-3.00;99.90
16066;DHT22;8137;48.952;8.970;2023-03-01T02:07:40;-3.00;99.90
16066;DHT22;8137;48.952;8.970;2023-03-01T02:10:07;-3.00;99.90
16066;DHT22;8137;48.952;8.970;2023-03-01T02:12:32;-3.10;99.90
16066;DHT22;8137;48.952;8.970;2023-03-01T02:14:59;-3.10;99.90
16066;DHT22;8137;48.952;8.970;2023-03-01T02:17:25;-3.10;99.90
16066;DHT22;8137;48.952;8.970;2023-03-01T02:22:46;-3.10;99.90
16066;DHT22;8137;48.952;8.970;2023-03-01T02:30:42;-3.20;99.90
16066;DHT22;8137;48.952;8.970;2023-03-01T02:33:30;-3.20;99.90
16066;DHT22;8137;48.952;8.970;2023-03-01T02:36:06;-3.20;99.90
16066;DHT22;8137;48.952;8.970;2023-03-01T02:38:33;-3.20;99.90
16066;DHT22;8137;48.952;8.970;2023-03-01T02:41:00;-3.20;99.90
16066;DHT22;8137;48.952;8.970;2023-03-01T02:43:30;-3.30;99.90
16066;DHT22;8137;48.952;8.970;2023-03-01T02:45:59;-3.40;99.90
16066;DHT22;8137;48.952;8.970;2023-03-01T02:48:51;-3.50;99.90
16066;DHT22;8137;48.952;8.970;2023-03-01T02:56:36;-3.60;99.90
16066;DHT22;8137;48.952;8.970;2023-03-01T02:59:01;-3.60;99.90
16066;DHT22;8137;48.952;8.970;2023-03-01T03:01:28;-3.60;99.90
16066;DHT22;8137;48.952;8.970;2023-03-01T03:04:08;-3.60;99.90
16066;DHT22;8137;48.952;8.970;2023-03-01T03:06:35;-3.60;99.90
16066;DHT22;8137;48.952;8.970;2023-03-01T03:09:00;-3.70;99.90
16066;DHT22;8137;48.952;8.970;2023-03-01T03:11:26;-3.70;99.90
16066;DHT22;8137;48.952;8.970;2023-03-01T03:13:52;-3.70;99.90
16066;DHT22;8137;48.952;8.970;2023-03-01T03:16:18;-3.70;99.90
16066;DHT22;8137;48.952;8.970;2023-03-01T03:18:43;-3.60;99.90
16066;DHT22;8137;48.952;8.970;2023-03-01T03:21:11;-3.60;99.90
16066;DHT22;8137;48.952;8.970;2023-03-01T03:23:37;-3.50;99.90
16066;DHT22;8137;48.952;8.970;2023-03-01T03:26:03;-3.40;99.90
16066;DHT22;8137;48.952;8.970;2023-03-01T03:28:30;-3.30;99.90
16066;DHT22;8137;48.952;8.970;2023-03-01T03:30:56;-3.20;99.90
16066;DHT22;8137;48.952;8.970;2023-03-01T03:33:22;-3.10;99.90
16066;DHT22;8137;48.952;8.970;2023-03-01T03:35:48;-3.00;99.90
16066;DHT22;8137;48.952;8.970;2023-03-01T03:38:17;-2.90;99.90
16066;DHT22;8137;48.952;8.970;2023-03-01T03:40:46;-2.90;99.90
16066;DHT22;8137;48.952;8.970;2023-03-01T03:43:20;-2.80;99.90
16066;DHT22;8137;48.952;8.970;2023-03-01T03:45:47;-2.80;99.90
16066;DHT22;8137;48.952;8.970;2023-03-01T03:48:14;-2.80;99.90
16066;DHT22;8137;48.952;8.970;2023-03-01T03:50:40;-2.80;99.90
16066;DHT22;8137;48.952;8.970;2023-03-01T03:53:09;-2.80;99.90
16066;DHT22;8137;48.952;8.970;2023-03-01T03:55:36;-2.80;99.90
16066;DHT22;8137;48.952;8.970;2023-03-01T03:58:05;-2.90;99.90
16066;DHT22;8137;48.952;8.970;2023-03-01T04:00:38;-3.00;99.90
16066;DHT22;8137;48.952;8.970;2023-03-01T04:03:05;-3.10;99.90
16066;DHT22;8137;48.952;8.970;2023-03-01T04:05:30;-3.10;99.90
16066;DHT22;8137;48.952;8.970;2023-03-01T04:07:56;-3.10;99.90
16066;DHT22;8137;48.952;8.970;2023-03-01T04:10:34;-3.10;99.90
16066;DHT22;8137;48.952;8.970;2023-03-01T04:13:00;-3.20;99.90
16066;DHT22;8137;48.952;8.970;2023-03-01T04:15:26;-3.20;99.90
16066;DHT22;8137;48.952;8.970;2023-03-01T04:17:53;-3.20;99.90
16066;DHT22;8137;48.952;8.970;2023-03-01T04:20:23;-3.20;99.90
16066;DHT22;8137;48.952;8.970;2023-03-01T04:23:07;-3.20;99.90
16066;DHT22;8137;48.952;8.970;2023-03-01T04:25:39;-3.20;99.90
16066;DHT22;8137;48.952;8.970;2023-03-01T04:28:05;-3.20;99.90
16066;DHT22;8137;48.952;8.970;2023-03-01T04:30:31;-3.30;99.90
16066;DHT22;8137;48.952;8.970;2023-03-01T04:33:04;-3.40;99.90
16066;DHT22;8137;48.952;8.970;2023-03-01T04:35:31;-3.40;99.90
16066;DHT22;8137;48.952;8.970;2023-03-01T04:37:57;-3.50;99.90
16066;DHT22;8137;48.952;8.970;2023-03-01T04:40:22;-3.50;99.90
16066;DHT22;8137;48.952;8.970;2023-03-01T04:42:48;-3.50;99.90
16066;DHT22;8137;48.952;8.970;2023-03-01T04:45:13;-3.50;99.90
16066;DHT22;8137;48.952;8.970;2023-03-01T04:47:43;-3.60;99.90
16066;DHT22;8137;48.952;8.970;2023-03-01T04:50:16;-3.60;99.90
16066;DHT22;8137;48.952;8.970;2023-03-01T04:52:43;-3.60;99.90
16066;DHT22;8137;48.952;8.970;2023-03-01T04:55:09;-3.70;99.90
16066;DHT22;8137;48.952;8.970;2023-03-01T04:57:34;-3.70;99.90
16066;DHT22;8137;48.952;8.970;2023-03-01T05:00:00;-3.70;99.90
16066;DHT22;8137;48.952;8.970;2023-03-01T05:02:26;-3.70;99.90
16066;DHT22;8137;48.952;8.970;2023-03-01T05:04:51;-3.60;99.90
16066;DHT22;8137;48.952;8.970;2023-03-01T05:07:17;-3.60;99.90
16066;DHT22;8137;48.952;8.970;2023-03-01T05:09:48;-3.60;99.90
16066;DHT22;8137;48.952;8.970;2023-03-01T05:12:14;-3.60;99.90
16066;DHT22;8137;48.952;8.970;2023-03-01T05:14:41;-3.60;99.90
16066;DHT22;8137;48.952;8.970;2023-03-01T05:17:07;-3.60;99.90
16066;DHT22;8137;48.952;8.970;2023-03-01T05:19:33;-3.70;99.90
16066;DHT22;8137;48.952;8.970;2023-03-01T05:21:59;-3.70;99.90
16066;DHT22;8137;48.952;8.970;2023-03-01T05:24:34;-3.70;99.90
16066;DHT22;8137;48.952;8.970;2023-03-01T05:27:00;-3.70;99.90
16066;DHT22;8137;48.952;8.970;2023-03-01T05:29:28;-3.80;99.90
16066;DHT22;8137;48.952;8.970;2023-03-01T05:31:58;-3.80;99.90
16066;DHT22;8137;48.952;8.970;2023-03-01T05:34:32;-3.80;99.90
16066;DHT22;8137;48.952;8.970;2023-03-01T05:36:59;-3.80;99.90
16066;DHT22;8137;48.952;8.970;2023-03-01T05:39:26;-3.90;99.90
16066;DHT22;8137;48.952;8.970;2023-03-01T05:41:57;-3.90;99.90
16066;DHT22;8137;48.952;8.970;2023-03-01T05:44:23;-4.00;99.90
16066;DHT22;8137;48.952;8.970;2023-03-01T05:46:49;-4.00;99.90
16066;DHT22;8137;48.952;8.970;2023-03-01T05:49:15;-4.10;99.90
16066;DHT22;8137;48.952;8.970;2023-03-01T05:51:42;-4.10;99.90
16066;DHT22;8137;48.952;8.970;2023-03-01T05:54:09;-4.10;99.90
16066;DHT22;8137;48.952;8.970;2023-03-01T05:56:36;-4.10;99.90
16066;DHT22;8137;48.952;8.970;2023-03-01T05:59:03;-4.10;99.90
16066;DHT22;8137;48.952;8.970;2023-03-01T06:01:29;-4.10;99.90
16066;DHT22;8137;48.952;8.970;2023-03-01T06:03:55;-4.10;99.90
16066;DHT22;8137;48.952;8.970;2023-03-01T06:06:21;-4.10;99.90
16066;DHT22;8137;48.952;8.970;2023-03-01T06:08:46;-4.00;99.90
16066;DHT22;8137;48.952;8.970;2023-03-01T06:11:12;-3.90;99.90
16066;DHT22;8137;48.952;8.970;2023-03-01T06:13:38;-3.90;99.90
16066;DHT22;8137;48.952;8.970;2023-03-01T06:16:07;-3.80;99.90
16066;DHT22;8137;48.952;8.970;2023-03-01T06:18:33;-3.70;99.90
16066;DHT22;8137;48.952;8.970;2023-03-01T06:20:58;-3.60;99.90
16066;DHT22;8137;48.952;8.970;2023-03-01T06:23:24;-3.60;99.90
16066;DHT22;8137;48.952;8.970;2023-03-01T06:25:52;-3.40;99.90
16066;DHT22;8137;48.952;8.970;2023-03-01T06:28:17;-3.40;99.90
16066;DHT22;8137;48.952;8.970;2023-03-01T06:30:43;-3.30;99.90
16066;DHT22;8137;48.952;8.970;2023-03-01T06:33:08;-2.90;99.90
16066;DHT22;8137;48.952;8.970;2023-03-01T06:35:34;-2.60;99.90
16066;DHT22;8137;48.952;8.970;2023-03-01T06:38:02;-2.70;99.90
16066;DHT22;8137;48.952;8.970;2023-03-01T06:40:29;-2.80;99.90
16066;DHT22;8137;48.952;8.970;2023-03-01T06:42:54;-2.80;99.90
16066;DHT22;8137;48.952;8.970;2023-03-01T06:45:21;-2.80;99.90
16066;DHT22;8137;48.952;8.970;2023-03-01T06:47:47;-2.70;99.90
16066;DHT22;8137;48.952;8.970;2023-03-01T06:50:13;-2.70;99.90
16066;DHT22;8137;48.952;8.970;2023-03-01T06:52:39;-2.60;99.90
16066;DHT22;8137;48.952;8.970;2023-03-01T06:55:05;-2.50;99.90
16066;DHT22;8137;48.952;8.970;2023-03-01T06:57:32;-2.40;99.90
16066;DHT22;8137;48.952;8.970;2023-03-01T06:59:57;-2.40;99.90
16066;DHT22;8137;48.952;8.970;2023-03-01T07:02:23;-2.30;99.90
16066;DHT22;8137;48.952;8.970;2023-03-01T07:04:50;-2.20;99.90
16066;DHT22;8137;48.952;8.970;2023-03-01T07:07:16;-2.10;99.90
16066;DHT22;8137;48.952;8.970;2023-03-01T07:09:46;-2.00;99.90
16066;DHT22;8137;48.952;8.970;2023-03-01T07:12:12;-1.90;99.90
16066;DHT22;8137;48.952;8.970;2023-03-01T07:14:38;-1.70;99.90
16066;DHT22;8137;48.952;8.970;2023-03-01T07:17:03;-1.50;99.90
16066;DHT22;8137;48.952;8.970;2023-03-01T07:19:29;-1.40;99.90
16066;DHT22;8137;48.952;8.970;2023-03-01T07:21:55;-1.30;99.90
16066;DHT22;8137;48.952;8.970;2023-03-01T07:24:21;-1.10;99.90
16066;DHT22;8137;48.952;8.970;2023-03-01T07:26:51;-1.00;99.90
16066;DHT22;8137;48.952;8.970;2023-03-01T07:29:17;-1.00;99.90
16066;DHT22;8137;48.952;8.970;2023-03-01T07:31:43;-0.90;99.90
16066;DHT22;8137;48.952;8.970;2023-03-01T07:34:09;-0.90;99.90
16066;DHT22;8137;48.952;8.970;2023-03-01T07:36:36;-0.80;99.90
16066;DHT22;8137;48.952;8.970;2023-03-01T07:39:02;-0.70;99.90
16066;DHT22;8137;48.952;8.970;2023-03-01T07:41:28;-0.60;99.90
16066;DHT22;8137;48.952;8.970;2023-03-01T07:43:54;-0.50;99.90
16066;DHT22;8137;48.952;8.970;2023-03-01T07:46:20;-0.40;99.90
16066;DHT22;8137;48.952;8.970;2023-03-01T07:48:46;-0.20;99.90
16066;DHT22;8137;48.952;8.970;2023-03-01T07:51:11;-0.20;99.90
16066;DHT22;8137;48.952;8.970;2023-03-01T07:53:39;-0.20;99.90
16066;DHT22;8137;48.952;8.970;2023-03-01T07:56:10;-0.20;99.90
16066;DHT22;8137;48.952;8.970;2023-03-01T07:58:38;-0.10;99.90
16066;DHT22;8137;48.952;8.970;2023-03-01T08:01:06;0.00;99.90
16066;DHT22;8137;48.952;8.970;2023-03-01T08:03:32;0.00;99.90
16066;DHT22;8137;48.952;8.970;2023-03-01T08:06:02;0.20;99.90
16066;DHT22;8137;48.952;8.970;2023-03-01T08:08:28;0.30;99.90
16066;DHT22;8137;48.952;8.970;2023-03-01T08:10:56;0.50;99.90
16066;DHT22;8137;48.952;8.970;2023-03-01T08:13:22;0.50;99.90
16066;DHT22;8137;48.952;8.970;2023-03-01T08:15:49;0.60;99.90
16066;DHT22;8137;48.952;8.970;2023-03-01T08:18:19;0.60;99.90
16066;DHT22;8137;48.952;8.970;2023-03-01T08:20:45;0.50;99.90
16066;DHT22;8137;48.952;8.970;2023-03-01T08:23:10;0.60;99.90
16066;DHT22;8137;48.952;8.970;2023-03-01T08:25:36;0.60;99.90
16066;DHT22;8137;48.952;8.970;2023-03-01T08:28:02;0.60;99.90
16066;DHT22;8137;48.952;8.970;2023-03-01T08:30:29;0.80;99.90
16066;DHT22;8137;48.952;8.970;2023-03-01T08:32:54;0.90;99.90
16066;DHT22;8137;48.952;8.970;2023-03-01T08:35:20;1.00;99.90
16066;DHT22;8137;48.952;8.970;2023-03-01T08:37:46;1.20;99.90
16066;DHT22;8137;48.952;8.970;2023-03-01T08:40:13;1.20;99.90
16066;DHT22;8137;48.952;8.970;2023-03-01T08:42:42;1.30;99.90
16066;DHT22;8137;48.952;8.970;2023-03-01T08:45:09;1.50;99.90
16066;DHT22;8137;48.952;8.970;2023-03-01T08:47:36;1.60;99.90
16066;DHT22;8137;48.952;8.970;2023-03-01T08:50:02;1.60;99.90
16066;DHT22;8137;48.952;8.970;2023-03-01T08:52:27;1.70;99.90
16066;DHT22;8137;48.952;8.970;2023-03-01T08:54:54;1.70;99.90
16066;DHT22;8137;48.952;8.970;2023-03-01T08:57:19;1.80;99.90
16066;DHT22;8137;48.952;8.970;2023-03-01T08:59:45;1.90;99.90
16066;DHT22;8137;48.952;8.970;2023-03-01T09:02:13;2.00;99.90
16066;DHT22;8137;48.952;8.970;2023-03-01T09:04:39;2.10;99.90
16066;DHT22;8137;48.952;8.970;2023-03-01T09:07:05;2.10;99.90
16066;DHT22;8137;48.952;8.970;2023-03-01T09:09:31;2.20;99.90
16066;DHT22;8137;48.952;8.970;2023-03-01T09:11:57;2.30;99.90
16066;DHT22;8137;48.952;8.970;2023-03-01T09:14:22;2.40;99.90
16066;DHT22;8137;48.952;8.970;2023-03-01T09:16:48;2.50;99.90
16066;DHT22;8137;48.952;8.970;2023-03-01T09:19:14;2.60;99.90
16066;DHT22;8137;48.952;8.970;2023-03-01T09:21:40;2.70;99.90
16066;DHT22;8137;48.952;8.970;2023-03-01T09:24:14;2.80;99.90
16066;DHT22;8137;48.952;8.970;2023-03-01T09:26:39;2.90;99.90
16066;DHT22;8137;48.952;8.970;2023-03-01T09:29:05;3.00;99.90
16066;DHT22;8137;48.952;8.970;2023-03-01T09:31:31;3.10;99.90
16066;DHT22;8137;48.952;8.970;2023-03-01T09:33:56;3.10;99.90
16066;DHT22;8137;48.952;8.970;2023-03-01T09:36:23;3.20;99.90
16066;DHT22;8137;48.952;8.970;2023-03-01T09:38:51;3.30;99.90
16066;DHT22;8137;48.952;8.970;2023-03-01T09:46:51;3.80;99.90
16066;DHT22;8137;48.952;8.970;2023-03-01T09:49:20;3.90;99.90
16066;DHT22;8137;48.952;8.970;2023-03-01T09:52:02;4.00;99.90
16066;DHT22;8137;48.952;8.970;2023-03-01T09:54:29;4.10;99.90
16066;DHT22;8137;48.952;8.970;2023-03-01T09:57:15;4.30;99.90
16066;DHT22;8137;48.952;8.970;2023-03-01T10:02:29;4.30;99.90
16066;DHT22;8137;48.952;8.970;2023-03-01T10:05:25;4.30;99.90
16066;DHT22;8137;48.952;8.970;2023-03-01T10:08:06;4.10;99.90
16066;DHT22;8137;48.952;8.970;2023-03-01T10:10:38;4.20;99.90
16066;DHT22;8137;48.952;8.970;2023-03-01T10:13:14;4.30;99.90
16066;DHT22;8137;48.952;8.970;2023-03-01T10:15:50;4.50;99.90
16066;DHT22;8137;48.952;8.970;2023-03-01T10:18:23;4.50;99.90
16066;DHT22;8137;48.952;8.970;2023-03-01T10:20:57;4.60;99.90
16066;DHT22;8137;48.952;8.970;2023-03-01T10:23:24;4.70;99.90
16066;DHT22;8137;48.952;8.970;2023-03-01T10:26:02;4.80;99.90
16066;DHT22;8137;48.952;8.970;2023-03-01T10:28:54;5.00;99.90
16066;DHT22;8137;48.952;8.970;2023-03-01T10:31:27;5.10;99.90
16066;DHT22;8137;48.952;8.970;2023-03-01T10:34:04;5.10;99.90
16066;DHT22;8137;48.952;8.970;2023-03-01T10:36:33;5.00;99.90
16066;DHT22;8137;48.952;8.970;2023-03-01T10:39:05;4.90;99.90
16066;DHT22;8137;48.952;8.970;2023-03-01T10:41:47;4.80;99.90
16066;DHT22;8137;48.952;8.970;2023-03-01T10:47:21;4.90;99.90
16066;DHT22;8137;48.952;8.970;2023-03-01T10:50:05;5.20;99.90
16066;DHT22;8137;48.952;8.970;2023-03-01T10:52:40;5.20;99.90
16066;DHT22;8137;48.952;8.970;2023-03-01T10:58:21;4.90;99.90
16066;DHT22;8137;48.952;8.970;2023-03-01T11:00:54;5.10;99.90
16066;DHT22;8137;48.952;8.970;2023-03-01T11:03:26;5.40;99.90
16066;DHT22;8137;48.952;8.970;2023-03-01T11:05:57;5.60;99.90
16066;DHT22;8137;48.952;8.970;2023-03-01T11:11:30;5.70;99.90
16066;DHT22;8137;48.952;8.970;2023-03-01T11:14:19;5.90;99.90
16066;DHT22;8137;48.952;8.970;2023-03-01T11:16:48;5.80;99.90
16066;DHT22;8137;48.952;8.970;2023-03-01T11:19:16;5.70;99.90
16066;DHT22;8137;48.952;8.970;2023-03-01T11:22:07;5.90;99.90
16066;DHT22;8137;48.952;8.970;2023-03-01T11:24:46;5.80;99.90
16066;DHT22;8137;48.952;8.970;2023-03-01T11:27:20;5.90;99.90
16066;DHT22;8137;48.952;8.970;2023-03-01T11:30:06;6.10;99.90
16066;DHT22;8137;48.952;8.970;2023-03-01T11:33:13;6.10;99.90
16066;DHT22;8137;48.952;8.970;2023-03-01T11:36:06;6.10;99.90
16066;DHT22;8137;48.952;8.970;2023-03-01T11:38:35;6.20;99.90
16066;DHT22;8137;48.952;8.970;2023-03-01T11:41:05;6.10;99.90
16066;DHT22;8137;48.952;8.970;2023-03-01T11:57:15;6.80;99.90
16066;DHT22;8137;48.952;8.970;2023-03-01T12:00:02;6.80;99.90
16066;DHT22;8137;48.952;8.970;2023-03-01T12:05:34;7.10;99.90
16066;DHT22;8137;48.952;8.970;2023-03-01T12:08:17;7.10;99.90
16066;DHT22;8137;48.952;8.970;2023-03-01T12:13:49;7.00;99.90
16066;DHT22;8137;48.952;8.970;2023-03-01T12:19:08;7.30;99.90
16066;DHT22;8137;48.952;8.970;2023-03-01T12:21:43;7.30;99.90
16066;DHT22;8137;48.952;8.970;2023-03-01T12:43:36;7.10;99.90
16066;DHT22;8137;48.952;8.970;2023-03-01T12:46:11;7.20;99.90
16066;DHT22;8137;48.952;8.970;2023-03-01T12:48:54;7.10;99.90
16066;DHT22;8137;48.952;8.970;2023-03-01T12:51:24;7.20;99.90
16066;DHT22;8137;48.952;8.970;2023-03-01T12:53:54;7.40;99.90
16066;DHT22;8137;48.952;8.970;2023-03-01T12:56:25;7.50;99.90
16066;DHT22;8137;48.952;8.970;2023-03-01T13:02:01;7.60;99.90
16066;DHT22;8137;48.952;8.970;2023-03-01T13:04:52;7.60;99.90
16066;DHT22;8137;48.952;8.970;2023-03-01T13:07:23;7.60;99.90
16066;DHT22;8137;48.952;8.970;2023-03-01T13:12:44;7.50;99.90
16066;DHT22;8137;48.952;8.970;2023-03-01T13:15:37;7.30;99.90
16066;DHT22;8137;48.952;8.970;2023-03-01T13:33:47;7.50;99.90
16066;DHT22;8137;48.952;8.970;2023-03-01T13:44:35;7.60;99.90
16066;DHT22;8137;48.952;8.970;2023-03-01T13:49:47;7.50;99.90
16066;DHT22;8137;48.952;8.970;2023-03-01T13:53:09;7.50;99.90
16066;DHT22;8137;48.952;8.970;2023-03-01T13:57:57;7.60;99.90
16066;DHT22;8137;48.952;8.970;2023-03-01T14:03:00;7.70;99.90
16066;DHT22;8137;48.952;8.970;2023-03-01T14:05:26;7.50;99.90
16066;DHT22;8137;48.952;8.970;2023-03-01T14:07:51;7.40;99.90
16066;DHT22;8137;48.952;8.970;2023-03-01T14:10:17;7.50;99.90
16066;DHT22;8137;48.952;8.970;2023-03-01T14:12:58;7.50;99.90
16066;DHT22;8137;48.952;8.970;2023-03-01T14:18:21;7.50;99.90
16066;DHT22;8137;48.952;8.970;2023-03-01T14:20:48;7.50;99.90
16066;DHT22;8137;48.952;8.970;2023-03-01T14:23:20;7.70;99.90
16066;DHT22;8137;48.952;8.970;2023-03-01T14:25:57;7.70;99.90
16066;DHT22;8137;48.952;8.970;2023-03-01T14:28:31;7.80;99.90
16066;DHT22;8137;48.952;8.970;2023-03-01T14:31:00;7.60;99.90
16066;DHT22;8137;48.952;8.970;2023-03-01T14:33:27;7.60;99.60
16066;DHT22;8137;48.952;8.970;2023-03-01T14:36:00;7.60;99.50
16066;DHT22;8137;48.952;8.970;2023-03-01T14:41:44;7.60;99.10
16066;DHT22;8137;48.952;8.970;2023-03-01T14:44:03;7.60;98.60
16066;DHT22;8137;48.952;8.970;2023-03-01T14:46:36;7.60;98.50
16066;DHT22;8137;48.952;8.970;2023-03-01T14:49:17;7.60;98.20
16066;DHT22;8137;48.952;8.970;2023-03-01T14:51:54;7.50;98.10
16066;DHT22;8137;48.952;8.970;2023-03-01T14:56:59;7.50;97.90
16066;DHT22;8137;48.952;8.970;2023-03-01T14:59:26;7.50;97.90
16066;DHT22;8137;48.952;8.970;2023-03-01T15:01:54;7.50;98.20
16066;DHT22;8137;48.952;8.970;2023-03-01T15:04:21;7.60;97.60
16066;DHT22;8137;48.952;8.970;2023-03-01T15:06:51;7.60;97.10
16066;DHT22;8137;48.952;8.970;2023-03-01T15:09:17;7.50;96.80
16066;DHT22;8137;48.952;8.970;2023-03-01T15:11:43;7.50;97.00
16066;DHT22;8137;48.952;8.970;2023-03-01T15:14:43;7.50;96.60
16066;DHT22;8137;48.952;8.970;2023-03-01T15:17:28;7.40;96.00
16066;DHT22;8137;48.952;8.970;2023-03-01T15:19:56;7.50;96.60
16066;DHT22;8137;48.952;8.970;2023-03-01T15:22:23;7.50;96.20
16066;DHT22;8137;48.952;8.970;2023-03-01T15:24:50;7.50;95.70
16066;DHT22;8137;48.952;8.970;2023-03-01T15:27:17;7.50;95.80
16066;DHT22;8137;48.952;8.970;2023-03-01T15:29:49;7.40;95.90
16066;DHT22;8137;48.952;8.970;2023-03-01T15:32:30;7.40;96.20
16066;DHT22;8137;48.952;8.970;2023-03-01T15:35:00;7.40;95.50
16066;DHT22;8137;48.952;8.970;2023-03-01T15:37:54;7.30;95.30
16066;DHT22;8137;48.952;8.970;2023-03-01T15:40:24;7.40;94.80
16066;DHT22;8137;48.952;8.970;2023-03-01T15:43:00;7.20;94.60
16066;DHT22;8137;48.952;8.970;2023-03-01T15:45:28;7.20;95.20
16066;DHT22;8137;48.952;8.970;2023-03-01T15:48:00;7.30;94.60
16066;DHT22;8137;48.952;8.970;2023-03-01T15:50:33;7.30;94.80
16066;DHT22;8137;48.952;8.970;2023-03-01T15:53:00;7.20;94.50
16066;DHT22;8137;48.952;8.970;2023-03-01T15:55:28;7.20;94.50
16066;DHT22;8137;48.952;8.970;2023-03-01T15:58:12;7.30;94.10
16066;DHT22;8137;48.952;8.970;2023-03-01T16:00:38;7.20;94.00
16066;DHT22;8137;48.952;8.970;2023-03-01T16:03:05;7.20;93.90
16066;DHT22;8137;48.952;8.970;2023-03-01T16:05:33;7.20;93.80
16066;DHT22;8137;48.952;8.970;2023-03-01T16:08:00;7.10;93.70
16066;DHT22;8137;48.952;8.970;2023-03-01T16:10:26;7.10;93.30
16066;DHT22;8137;48.952;8.970;2023-03-01T16:12:53;7.00;93.60
16066;DHT22;8137;48.952;8.970;2023-03-01T16:15:24;7.00;93.10
16066;DHT22;8137;48.952;8.970;2023-03-01T16:17:50;7.00;93.20
16066;DHT22;8137;48.952;8.970;2023-03-01T16:20:16;6.90;93.30
16066;DHT22;8137;48.952;8.970;2023-03-01T16:22:45;6.90;93.40
16066;DHT22;8137;48.952;8.970;2023-03-01T16:25:13;6.80;93.60
16066;DHT22;8137;48.952;8.970;2023-03-01T16:27:42;6.80;93.90
16066;DHT22;8137;48.952;8.970;2023-03-01T16:30:08;6.70;94.00
16066;DHT22;8137;48.952;8.970;2023-03-01T16:32:39;6.70;94.00
16066;DHT22;8137;48.952;8.970;2023-03-01T16:35:06;6.70;94.00
16066;DHT22;8137;48.952;8.970;2023-03-01T16:37:33;6.60;93.90
16066;DHT22;8137;48.952;8.970;2023-03-01T16:39:59;6.50;94.00
16066;DHT22;8137;48.952;8.970;2023-03-01T16:42:25;6.40;94.40
16066;DHT22;8137;48.952;8.970;2023-03-01T16:44:57;6.30;94.80
16066;DHT22;8137;48.952;8.970;2023-03-01T16:47:23;6.30;94.70
16066;DHT22;8137;48.952;8.970;2023-03-01T16:49:52;6.30;94.90
16066;DHT22;8137;48.952;8.970;2023-03-01T16:52:18;6.20;94.80
16066;DHT22;8137;48.952;8.970;2023-03-01T16:54:44;6.20;95.10
16066;DHT22;8137;48.952;8.970;2023-03-01T16:57:10;6.00;95.60
16066;DHT22;8137;48.952;8.970;2023-03-01T16:59:36;6.00;95.80
16066;DHT22;8137;48.952;8.970;2023-03-01T17:02:03;6.00;95.80
16066;DHT22;8137;48.952;8.970;2023-03-01T17:04:28;5.90;96.20
16066;DHT22;8137;48.952;8.970;2023-03-01T17:06:54;5.90;96.30
16066;DHT22;8137;48.952;8.970;2023-03-01T17:09:19;5.80;96.60
16066;DHT22;8137;48.952;8.970;2023-03-01T17:11:48;5.80;96.80
16066;DHT22;8137;48.952;8.970;2023-03-01T17:14:14;5.70;96.90
16066;DHT22;8137;48.952;8.970;2023-03-01T17:16:41;5.60;97.20
16066;DHT22;8137;48.952;8.970;2023-03-01T17:19:07;5.50;97.60
16066;DHT22;8137;48.952;8.970;2023-03-01T17:21:33;5.40;98.10
16066;DHT22;8137;48.952;8.970;2023-03-01T17:23:58;5.50;98.60
16066;DHT22;8137;48.952;8.970;2023-03-01T17:26:25;5.40;98.60
16066;DHT22;8137;48.952;8.970;2023-03-01T17:28:50;5.40;99.00
16066;DHT22;8137;48.952;8.970;2023-03-01T17:31:18;5.30;99.30
16066;DHT22;8137;48.952;8.970;2023-03-01T17:33:43;5.20;99.90
16066;DHT22;8137;48.952;8.970;2023-03-01T17:36:09;5.10;99.90
16066;DHT22;8137;48.952;8.970;2023-03-01T17:38:35;5.10;99.90
16066;DHT22;8137;48.952;8.970;2023-03-01T17:41:02;5.20;99.90
16066;DHT22;8137;48.952;8.970;2023-03-01T17:43:28;5.10;99.90
16066;DHT22;8137;48.952;8.970;2023-03-01T17:45:55;5.10;99.90
16066;DHT22;8137;48.952;8.970;2023-03-01T17:48:21;5.00;99.90
16066;DHT22;8137;48.952;8.970;2023-03-01T17:50:47;5.00;99.90
16066;DHT22;8137;48.952;8.970;2023-03-01T17:53:13;4.90;99.90
16066;DHT22;8137;48.952;8.970;2023-03-01T17:55:40;4.70;99.90
16066;DHT22;8137;48.952;8.970;2023-03-01T17:58:07;4.70;99.90
16066;DHT22;8137;48.952;8.970;2023-03-01T18:00:34;4.70;99.90
16066;DHT22;8137;48.952;8.970;2023-03-01T18:03:01;4.80;99.90
16066;DHT22;8137;48.952;8.970;2023-03-01T18:05:26;4.90;99.90
16066;DHT22;8137;48.952;8.970;2023-03-01T18:07:52;4.80;99.90
16066;DHT22;8137;48.952;8.970;2023-03-01T18:10:19;4.80;99.90